Girdwood, Alaska
Current Conditions -  °F | °C
As of 7:53 PM on Saturday 20 Dec 2014 (Local Time) from PATO Reporting Station
Overcast Overcast  
Wind Chill: 27°   Ceiling: 800
Heat Index: 27°   Visibility: 10mi
Dew Point: 27°   Wind: 0mph
Humidity: 100%   Direction: NA
Pressure: 28.9"   Gusts: NA
Location:  60.95°N, 149.16°W
Report Text: PATO 210453Z AUTO 00000KT 10SM OVC008 M03/M03 A2890 RMK AO2 SLP786 T10281028 TSNO
Loading
Personal Weather Stations






























Interactive Weather Map New forecast layout! Learn more

10-Day Weather Forecast

Advertisements
Track Severe Weather on mobile